sensor_id;sensor_type;location;lat;lon;timestamp;pressure;altitude;pressure_sealevel;temperature;humidity
7586;BME280;12459;42.646;23.292;2022-08-16T00:02:34;93229.34;;;19.46;83.08
7586;BME280;12459;42.646;23.292;2022-08-16T00:17:36;93226.94;;;20.42;80.83
7586;BME280;12459;42.646;23.292;2022-08-16T00:32:57;93236.97;;;19.71;84.23
7586;BME280;12459;42.646;23.292;2022-08-16T00:47:59;93246.63;;;20.72;79.17
7586;BME280;12459;42.646;23.292;2022-08-16T01:03:24;93263.22;;;20.54;79.18
7586;BME280;12459;42.646;23.292;2022-08-16T01:18:43;93269.56;;;21.00;81.19
7586;BME280;12459;42.646;23.292;2022-08-16T01:33:45;93283.91;;;19.42;86.06
7586;BME280;12459;42.646;23.292;2022-08-16T01:48:54;93279.63;;;20.24;82.75
7586;BME280;12459;42.646;23.292;2022-08-16T02:03:56;93283.94;;;19.57;84.17
7586;BME280;12459;42.646;23.292;2022-08-16T02:19:10;93317.34;;;20.17;82.63
7586;BME280;12459;42.646;23.292;2022-08-16T02:34:18;93361.66;;;20.96;80.28
7586;BME280;12459;42.646;23.292;2022-08-16T02:49:32;93343.13;;;20.36;80.50
7586;BME280;12459;42.646;23.292;2022-08-16T03:04:54;93327.53;;;20.66;78.58
7586;BME280;12459;42.646;23.292;2022-08-16T03:19:56;93304.22;;;19.86;80.76
7586;BME280;12459;42.646;23.292;2022-08-16T03:35:03;93306.47;;;20.02;79.99
7586;BME280;12459;42.646;23.292;2022-08-16T03:50:06;93313.19;;;20.51;77.85
7586;BME280;12459;42.646;23.292;2022-08-16T04:05:26;93316.53;;;19.81;81.20
7586;BME280;12459;42.646;23.292;2022-08-16T04:20:30;93305.50;;;20.34;80.40
7586;BME280;12459;42.646;23.292;2022-08-16T04:35:37;93305.50;;;21.45;74.94
7586;BME280;12459;42.646;23.292;2022-08-16T04:50:40;93269.38;;;21.50;74.50
7586;BME280;12459;42.646;23.292;2022-08-16T05:05:44;93319.91;;;24.50;67.15
7586;BME280;12459;42.646;23.292;2022-08-16T05:21:05;93318.41;;;25.63;65.03
7586;BME280;12459;42.646;23.292;2022-08-16T05:36:11;93313.22;;;26.96;60.89
7586;BME280;12459;42.646;23.292;2022-08-16T05:51:15;93326.34;;;24.80;67.77
7586;BME280;12459;42.646;23.292;2022-08-16T06:06:36;93328.00;;;26.93;59.11
7586;BME280;12459;42.646;23.292;2022-08-16T06:21:40;93323.69;;;27.89;55.94
7586;BME280;12459;42.646;23.292;2022-08-16T06:36:41;93319.81;;;28.36;53.46
7586;BME280;12459;42.646;23.292;2022-08-16T06:51:49;93305.13;;;28.46;53.47
7586;BME280;12459;42.646;23.292;2022-08-16T07:06:52;93287.31;;;29.59;50.42
7586;BME280;12459;42.646;23.292;2022-08-16T07:21:54;93277.59;;;31.45;45.65
7586;BME280;12459;42.646;23.292;2022-08-16T07:37:02;93279.63;;;30.25;47.29
7586;BME280;12459;42.646;23.292;2022-08-16T07:52:04;93284.69;;;31.04;45.85
7586;BME280;12459;42.646;23.292;2022-08-16T08:07:20;93298.63;;;30.91;46.51
7586;BME280;12459;42.646;23.292;2022-08-16T08:22:27;93292.19;;;30.68;45.26
7586;BME280;12459;42.646;23.292;2022-08-16T08:37:29;93297.88;;;31.40;42.91
7586;BME280;12459;42.646;23.292;2022-08-16T08:52:51;93300.78;;;34.37;34.83
7586;BME280;12459;42.646;23.292;2022-08-16T09:07:54;93299.00;;;35.66;32.51
7586;BME280;12459;42.646;23.292;2022-08-16T09:23:06;93306.03;;;35.08;32.89
7586;BME280;12459;42.646;23.292;2022-08-16T09:38:07;93291.56;;;36.13;29.93
7586;BME280;12459;42.646;23.292;2022-08-16T09:53:13;93299.81;;;35.76;29.72
7586;BME280;12459;42.646;23.292;2022-08-16T10:08:17;93285.84;;;34.75;32.68
7586;BME280;12459;42.646;23.292;2022-08-16T10:23:27;93284.81;;;36.60;29.63
7586;BME280;12459;42.646;23.292;2022-08-16T10:38:30;93281.13;;;36.13;26.48
7586;BME280;12459;42.646;23.292;2022-08-16T10:53:34;93282.84;;;35.65;29.66
7586;BME280;12459;42.646;23.292;2022-08-16T11:08:39;93284.81;;;35.72;30.53
7586;BME280;12459;42.646;23.292;2022-08-16T11:23:46;93268.63;;;36.32;29.13
7586;BME280;12459;42.646;23.292;2022-08-16T11:38:58;93262.72;;;34.89;29.65
7586;BME280;12459;42.646;23.292;2022-08-16T11:54:01;93280.44;;;31.24;36.90
7586;BME280;12459;42.646;23.292;2022-08-16T12:09:09;93262.19;;;30.17;39.56
7586;BME280;12459;42.646;23.292;2022-08-16T12:24:12;93235.34;;;30.46;35.95
7586;BME280;12459;42.646;23.292;2022-08-16T12:39:15;93226.09;;;32.16;34.69
7586;BME280;12459;42.646;23.292;2022-08-16T12:54:22;93211.47;;;31.49;35.80
7586;BME280;12459;42.646;23.292;2022-08-16T13:09:23;93203.59;;;31.68;36.03
7586;BME280;12459;42.646;23.292;2022-08-16T13:24:28;93197.56;;;33.22;24.31
7586;BME280;12459;42.646;23.292;2022-08-16T13:39:30;93186.50;;;32.00;25.42
7586;BME280;12459;42.646;23.292;2022-08-16T13:54:33;93175.66;;;32.33;26.47
7586;BME280;12459;42.646;23.292;2022-08-16T14:09:35;93187.81;;;32.22;26.92
7586;BME280;12459;42.646;23.292;2022-08-16T14:24:37;93190.97;;;30.80;30.07
7586;BME280;12459;42.646;23.292;2022-08-16T14:39:39;93198.69;;;29.91;34.07
7586;BME280;12459;42.646;23.292;2022-08-16T14:54:42;93201.91;;;30.36;35.55
7586;BME280;12459;42.646;23.292;2022-08-16T15:09:45;93209.50;;;30.43;36.33
7586;BME280;12459;42.646;23.292;2022-08-16T15:25:37;93207.50;;;29.68;36.97
7586;BME280;12459;42.646;23.292;2022-08-16T15:40:31;93204.28;;;29.77;37.75
7586;BME280;12459;42.646;23.292;2022-08-16T15:55:36;93202.81;;;29.16;38.34
7586;BME280;12459;42.646;23.292;2022-08-16T16:10:38;93220.03;;;28.37;39.78
7586;BME280;12459;42.646;23.292;2022-08-16T16:25:41;93233.25;;;27.56;41.77
7586;BME280;12459;42.646;23.292;2022-08-16T16:40:45;93222.81;;;27.49;42.19
7586;BME280;12459;42.646;23.292;2022-08-16T16:55:54;93239.97;;;26.93;44.01
7586;BME280;12459;42.646;23.292;2022-08-16T17:10:57;93240.31;;;27.14;42.99
7586;BME280;12459;42.646;23.292;2022-08-16T17:26:00;93261.59;;;26.59;45.15
7586;BME280;12459;42.646;23.292;2022-08-16T17:41:02;93269.56;;;26.62;44.53
7586;BME280;12459;42.646;23.292;2022-08-16T17:56:07;93263.88;;;26.25;45.25
7586;BME280;12459;42.646;23.292;2022-08-16T18:11:10;93279.88;;;25.85;47.61
7586;BME280;12459;42.646;23.292;2022-08-16T18:26:13;93303.66;;;25.08;50.31
7586;BME280;12459;42.646;23.292;2022-08-16T18:41:15;93332.72;;;25.44;50.60
7586;BME280;12459;42.646;23.292;2022-08-16T18:56:17;93349.00;;;25.20;50.63
7586;BME280;12459;42.646;23.292;2022-08-16T19:11:18;93373.75;;;24.98;51.78
7586;BME280;12459;42.646;23.292;2022-08-16T19:26:23;93398.88;;;24.57;53.27
7586;BME280;12459;42.646;23.292;2022-08-16T19:41:26;93395.16;;;24.66;53.28
7586;BME280;12459;42.646;23.292;2022-08-16T19:56:28;93398.13;;;24.34;54.46
7586;BME280;12459;42.646;23.292;2022-08-16T20:11:29;93392.91;;;24.53;54.79
7586;BME280;12459;42.646;23.292;2022-08-16T20:26:31;93395.41;;;24.73;54.41
7586;BME280;12459;42.646;23.292;2022-08-16T20:41:34;93393.41;;;24.79;53.75
7586;BME280;12459;42.646;23.292;2022-08-16T20:56:36;93410.34;;;24.39;54.90
7586;BME280;12459;42.646;23.292;2022-08-16T21:11:38;93416.81;;;23.71;58.82
7586;BME280;12459;42.646;23.292;2022-08-16T21:26:41;93421.81;;;23.72;58.81
7586;BME280;12459;42.646;23.292;2022-08-16T21:41:56;93414.56;;;23.64;57.88
7586;BME280;12459;42.646;23.292;2022-08-16T21:56:58;93416.16;;;22.70;61.79
7586;BME280;12459;42.646;23.292;2022-08-16T22:16:06;93393.97;;;23.31;59.06
7586;BME280;12459;42.646;23.292;2022-08-16T22:31:09;93398.47;;;22.91;59.79
7586;BME280;12459;42.646;23.292;2022-08-16T22:46:10;93392.09;;;23.06;57.34
7586;BME280;12459;42.646;23.292;2022-08-16T23:01:12;93388.31;;;22.35;60.52
7586;BME280;12459;42.646;23.292;2022-08-16T23:16:14;93381.13;;;22.37;59.75
7586;BME280;12459;42.646;23.292;2022-08-16T23:31:16;93379.19;;;21.91;60.60
7586;BME280;12459;42.646;23.292;2022-08-16T23:46:18;93377.06;;;22.27;58.79
